sensor_id;sensor_type;location;lat;lon;timestamp;pressure;altitude;pressure_sealevel;temperature;humidity
39363;BME280;25088;43.238;23.110;2023-04-07T00:00:17;96203.84;;;0.49;82.85
39363;BME280;25088;43.238;23.110;2023-04-07T00:02:43;96201.59;;;0.46;81.40
39363;BME280;25088;43.238;23.110;2023-04-07T00:05:08;96200.56;;;0.54;84.85
39363;BME280;25088;43.238;23.110;2023-04-07T00:07:34;96200.34;;;0.49;83.81
39363;BME280;25088;43.238;23.110;2023-04-07T00:09:59;96196.44;;;0.51;82.22
39363;BME280;25088;43.238;23.110;2023-04-07T00:12:25;96195.78;;;0.49;81.47
39363;BME280;25088;43.238;23.110;2023-04-07T00:14:50;96199.56;;;0.62;83.98
39363;BME280;25088;43.238;23.110;2023-04-07T00:17:16;96196.03;;;0.55;84.42
39363;BME280;25088;43.238;23.110;2023-04-07T00:19:41;96188.59;;;0.57;82.49
39363;BME280;25088;43.238;23.110;2023-04-07T00:22:08;96195.03;;;0.62;80.98
39363;BME280;25088;43.238;23.110;2023-04-07T00:24:33;96181.00;;;0.67;81.15
39363;BME280;25088;43.238;23.110;2023-04-07T00:26:58;96182.63;;;0.68;82.67
39363;BME280;25088;43.238;23.110;2023-04-07T00:29:25;96186.59;;;0.78;80.73
39363;BME280;25088;43.238;23.110;2023-04-07T00:31:50;96182.03;;;0.79;80.79
39363;BME280;25088;43.238;23.110;2023-04-07T00:34:16;96184.34;;;0.89;77.37
39363;BME280;25088;43.238;23.110;2023-04-07T00:36:41;96187.06;;;0.95;76.22
39363;BME280;25088;43.238;23.110;2023-04-07T00:39:06;96189.53;;;0.90;84.01
39363;BME280;25088;43.238;23.110;2023-04-07T00:41:33;96188.50;;;0.85;82.89
39363;BME280;25088;43.238;23.110;2023-04-07T00:44:00;96184.94;;;0.84;82.55
39363;BME280;25088;43.238;23.110;2023-04-07T00:46:25;96187.84;;;0.89;80.94
39363;BME280;25088;43.238;23.110;2023-04-07T00:48:51;96186.03;;;0.96;78.13
39363;BME280;25088;43.238;23.110;2023-04-07T00:51:21;96187.88;;;1.02;75.90
39363;BME280;25088;43.238;23.110;2023-04-07T00:53:48;96182.72;;;1.08;77.24
39363;BME280;25088;43.238;23.110;2023-04-07T00:56:13;96180.25;;;1.13;77.55
39363;BME280;25088;43.238;23.110;2023-04-07T00:58:39;96175.69;;;1.13;76.77
39363;BME280;25088;43.238;23.110;2023-04-07T01:01:28;96173.25;;;1.25;76.18
39363;BME280;25088;43.238;23.110;2023-04-07T01:04:05;96173.66;;;1.42;74.83
39363;BME280;25088;43.238;23.110;2023-04-07T01:06:36;96179.47;;;1.45;78.45
39363;BME280;25088;43.238;23.110;2023-04-07T01:09:18;96174.28;;;1.37;79.24
39363;BME280;25088;43.238;23.110;2023-04-07T01:14:46;96171.78;;;1.29;77.61
39363;BME280;25088;43.238;23.110;2023-04-07T01:17:16;96172.19;;;1.19;79.35
39363;BME280;25088;43.238;23.110;2023-04-07T01:19:52;96171.34;;;1.19;77.59
39363;BME280;25088;43.238;23.110;2023-04-07T01:22:24;96160.59;;;1.19;72.37
39363;BME280;25088;43.238;23.110;2023-04-07T01:30:14;96156.47;;;1.43;72.32
39363;BME280;25088;43.238;23.110;2023-04-07T01:32:42;96130.00;;;1.33;73.85
39363;BME280;25088;43.238;23.110;2023-04-07T01:35:11;96163.50;;;1.44;74.28
39363;BME280;25088;43.238;23.110;2023-04-07T01:37:37;96159.81;;;1.45;69.28
39363;BME280;25088;43.238;23.110;2023-04-07T01:40:04;96151.50;;;1.60;71.12
39363;BME280;25088;43.238;23.110;2023-04-07T01:42:32;96158.75;;;1.52;75.73
39363;BME280;25088;43.238;23.110;2023-04-07T01:44:59;96151.31;;;1.48;73.48
39363;BME280;25088;43.238;23.110;2023-04-07T01:47:26;96158.34;;;1.42;71.74
39363;BME280;25088;43.238;23.110;2023-04-07T01:49:56;96155.44;;;1.37;71.55
39363;BME280;25088;43.238;23.110;2023-04-07T01:52:24;96144.69;;;1.44;71.16
39363;BME280;25088;43.238;23.110;2023-04-07T01:54:50;96156.91;;;1.40;72.69
39363;BME280;25088;43.238;23.110;2023-04-07T01:57:16;96132.72;;;1.20;72.50
39363;BME280;25088;43.238;23.110;2023-04-07T01:59:42;96147.19;;;1.25;78.51
39363;BME280;25088;43.238;23.110;2023-04-07T02:02:07;96156.06;;;1.06;79.83
39363;BME280;25088;43.238;23.110;2023-04-07T02:04:41;96132.88;;;0.85;78.64
39363;BME280;25088;43.238;23.110;2023-04-07T02:07:16;96150.66;;;0.99;78.63
39363;BME280;25088;43.238;23.110;2023-04-07T02:09:43;96160.78;;;0.91;79.30
39363;BME280;25088;43.238;23.110;2023-04-07T02:12:12;96149.84;;;0.86;75.62
39363;BME280;25088;43.238;23.110;2023-04-07T02:14:39;96151.28;;;0.88;77.56
39363;BME280;25088;43.238;23.110;2023-04-07T02:17:05;96156.47;;;0.96;80.06
39363;BME280;25088;43.238;23.110;2023-04-07T02:19:32;96136.56;;;0.84;78.36
39363;BME280;25088;43.238;23.110;2023-04-07T02:22:04;96153.13;;;0.88;79.99
39363;BME280;25088;43.238;23.110;2023-04-07T02:24:29;96151.88;;;0.84;79.69
39363;BME280;25088;43.238;23.110;2023-04-07T02:26:55;96160.59;;;0.86;79.60
39363;BME280;25088;43.238;23.110;2023-04-07T02:29:21;96151.88;;;0.77;79.75
39363;BME280;25088;43.238;23.110;2023-04-07T02:31:47;96163.44;;;0.71;79.54
39363;BME280;25088;43.238;23.110;2023-04-07T02:34:12;96145.03;;;0.68;80.18
39363;BME280;25088;43.238;23.110;2023-04-07T02:36:38;96162.63;;;0.77;76.88
39363;BME280;25088;43.238;23.110;2023-04-07T02:39:03;96157.06;;;0.85;77.47
39363;BME280;25088;43.238;23.110;2023-04-07T02:41:28;96154.38;;;0.85;82.61
39363;BME280;25088;43.238;23.110;2023-04-07T02:43:54;96153.09;;;0.74;83.22
39363;BME280;25088;43.238;23.110;2023-04-07T02:46:20;96158.47;;;0.68;83.26
39363;BME280;25088;43.238;23.110;2023-04-07T02:48:45;96151.44;;;0.73;83.43
39363;BME280;25088;43.238;23.110;2023-04-07T02:51:10;96165.31;;;0.77;81.22
39363;BME280;25088;43.238;23.110;2023-04-07T02:53:36;96162.84;;;0.82;82.74
39363;BME280;25088;43.238;23.110;2023-04-07T02:56:01;96168.22;;;0.82;81.50
39363;BME280;25088;43.238;23.110;2023-04-07T02:58:27;96164.50;;;0.83;79.89
39363;BME280;25088;43.238;23.110;2023-04-07T03:00:52;96159.97;;;0.90;81.89
39363;BME280;25088;43.238;23.110;2023-04-07T03:03:18;96165.13;;;0.98;75.64
39363;BME280;25088;43.238;23.110;2023-04-07T03:05:43;96167.03;;;1.11;76.53
39363;BME280;25088;43.238;23.110;2023-04-07T03:08:08;96158.56;;;1.21;73.64
39363;BME280;25088;43.238;23.110;2023-04-07T03:10:34;96156.69;;;1.15;73.95
39363;BME280;25088;43.238;23.110;2023-04-07T03:13:00;96155.84;;;1.27;70.44
39363;BME280;25088;43.238;23.110;2023-04-07T03:15:25;96161.66;;;1.44;70.98
39363;BME280;25088;43.238;23.110;2023-04-07T03:17:51;96159.59;;;1.60;69.71
39363;BME280;25088;43.238;23.110;2023-04-07T03:20:16;96164.75;;;1.61;69.42
39363;BME280;25088;43.238;23.110;2023-04-07T03:22:42;96170.94;;;1.75;69.16
39363;BME280;25088;43.238;23.110;2023-04-07T03:25:09;96158.03;;;2.03;62.25
39363;BME280;25088;43.238;23.110;2023-04-07T03:27:35;96161.94;;;2.21;61.79
39363;BME280;25088;43.238;23.110;2023-04-07T03:30:01;96152.41;;;2.63;58.75
39363;BME280;25088;43.238;23.110;2023-04-07T03:32:26;96142.31;;;3.22;55.83
39363;BME280;25088;43.238;23.110;2023-04-07T03:34:52;96149.50;;;3.59;54.26
39363;BME280;25088;43.238;23.110;2023-04-07T03:37:17;96152.84;;;3.80;53.18
39363;BME280;25088;43.238;23.110;2023-04-07T03:39:42;96157.88;;;3.95;53.14
39363;BME280;25088;43.238;23.110;2023-04-07T03:42:08;96160.13;;;3.98;52.85
39363;BME280;25088;43.238;23.110;2023-04-07T03:44:33;96153.38;;;4.07;52.45
39363;BME280;25088;43.238;23.110;2023-04-07T03:46:59;96160.88;;;4.05;52.84
39363;BME280;25088;43.238;23.110;2023-04-07T03:49:25;96162.25;;;4.14;52.93
39363;BME280;25088;43.238;23.110;2023-04-07T03:51:51;96161.59;;;4.19;52.11
39363;BME280;25088;43.238;23.110;2023-04-07T03:54:16;96163.22;;;4.20;52.38
39363;BME280;25088;43.238;23.110;2023-04-07T03:56:42;96169.31;;;4.33;52.42
39363;BME280;25088;43.238;23.110;2023-04-07T03:59:07;96176.38;;;4.34;52.07
39363;BME280;25088;43.238;23.110;2023-04-07T04:01:33;96175.06;;;4.37;52.63
39363;BME280;25088;43.238;23.110;2023-04-07T04:03:58;96169.22;;;4.40;52.31
39363;BME280;25088;43.238;23.110;2023-04-07T04:06:25;96170.44;;;4.44;52.39
39363;BME280;25088;43.238;23.110;2023-04-07T04:08:51;96178.78;;;4.43;52.13
39363;BME280;25088;43.238;23.110;2023-04-07T04:11:16;96167.13;;;4.42;51.29
39363;BME280;25088;43.238;23.110;2023-04-07T04:13:42;96179.22;;;4.58;52.51
39363;BME280;25088;43.238;23.110;2023-04-07T04:16:07;96183.19;;;4.55;52.17
39363;BME280;25088;43.238;23.110;2023-04-07T04:18:33;96170.25;;;4.57;53.10
39363;BME280;25088;43.238;23.110;2023-04-07T04:20:58;96150.91;;;4.42;52.90
39363;BME280;25088;43.238;23.110;2023-04-07T04:23:24;96183.88;;;4.51;53.58
39363;BME280;25088;43.238;23.110;2023-04-07T04:25:49;96185.00;;;4.43;53.35
39363;BME280;25088;43.238;23.110;2023-04-07T04:28:14;96188.75;;;4.42;56.00
39363;BME280;25088;43.238;23.110;2023-04-07T04:30:40;96182.59;;;4.35;54.75
39363;BME280;25088;43.238;23.110;2023-04-07T04:33:06;96189.50;;;4.31;55.65
39363;BME280;25088;43.238;23.110;2023-04-07T04:35:31;96177.44;;;4.33;55.16
39363;BME280;25088;43.238;23.110;2023-04-07T04:37:57;96181.50;;;4.43;52.37
39363;BME280;25088;43.238;23.110;2023-04-07T04:40:22;96180.94;;;4.52;51.30
39363;BME280;25088;43.238;23.110;2023-04-07T04:42:47;96167.72;;;4.62;50.80
39363;BME280;25088;43.238;23.110;2023-04-07T04:45:13;96176.72;;;4.75;50.22
39363;BME280;25088;43.238;23.110;2023-04-07T04:47:38;96171.75;;;4.72;49.78
39363;BME280;25088;43.238;23.110;2023-04-07T04:50:05;96185.28;;;4.72;50.61
39363;BME280;25088;43.238;23.110;2023-04-07T04:52:31;96182.72;;;4.77;50.65
39363;BME280;25088;43.238;23.110;2023-04-07T04:54:57;96171.91;;;4.77;49.58
39363;BME280;25088;43.238;23.110;2023-04-07T04:57:22;96186.16;;;4.84;49.57
39363;BME280;25088;43.238;23.110;2023-04-07T04:59:48;96194.44;;;4.89;49.93
39363;BME280;25088;43.238;23.110;2023-04-07T05:02:13;96185.00;;;4.91;50.01
39363;BME280;25088;43.238;23.110;2023-04-07T05:04:38;96194.44;;;4.89;50.48
39363;BME280;25088;43.238;23.110;2023-04-07T05:07:04;96199.84;;;4.89;50.29
39363;BME280;25088;43.238;23.110;2023-04-07T05:09:30;96196.22;;;4.95;49.62
39363;BME280;25088;43.238;23.110;2023-04-07T05:11:55;96199.66;;;5.02;49.67
39363;BME280;25088;43.238;23.110;2023-04-07T05:14:22;96199.75;;;4.96;49.94
39363;BME280;25088;43.238;23.110;2023-04-07T05:16:47;96194.09;;;4.97;49.72
39363;BME280;25088;43.238;23.110;2023-04-07T05:19:12;96171.59;;;4.85;49.47
39363;BME280;25088;43.238;23.110;2023-04-07T05:21:38;96201.31;;;5.03;50.18
39363;BME280;25088;43.238;23.110;2023-04-07T05:24:03;96196.38;;;5.12;50.10
39363;BME280;25088;43.238;23.110;2023-04-07T05:26:29;96203.00;;;5.16;50.02
39363;BME280;25088;43.238;23.110;2023-04-07T05:28:54;96202.44;;;5.26;49.83
39363;BME280;25088;43.238;23.110;2023-04-07T05:31:20;96211.63;;;5.25;50.26
39363;BME280;25088;43.238;23.110;2023-04-07T05:33:45;96201.38;;;5.27;49.27
39363;BME280;25088;43.238;23.110;2023-04-07T05:36:11;96218.41;;;5.45;49.39
39363;BME280;25088;43.238;23.110;2023-04-07T05:38:36;96226.44;;;5.52;48.89
39363;BME280;25088;43.238;23.110;2023-04-07T05:41:01;96219.72;;;5.55;48.41
39363;BME280;25088;43.238;23.110;2023-04-07T05:43:27;96228.44;;;5.57;49.33
39363;BME280;25088;43.238;23.110;2023-04-07T05:45:52;96224.22;;;5.61;48.20
39363;BME280;25088;43.238;23.110;2023-04-07T05:48:18;96231.88;;;5.64;49.21
39363;BME280;25088;43.238;23.110;2023-04-07T05:50:43;96234.56;;;5.52;49.24
39363;BME280;25088;43.238;23.110;2023-04-07T05:53:08;96228.53;;;5.50;49.27
39363;BME280;25088;43.238;23.110;2023-04-07T05:55:34;96231.25;;;5.50;49.76
39363;BME280;25088;43.238;23.110;2023-04-07T05:58:00;96234.13;;;5.67;48.34
39363;BME280;25088;43.238;23.110;2023-04-07T06:00:26;96217.66;;;5.80;47.76
39363;BME280;25088;43.238;23.110;2023-04-07T06:02:51;96218.25;;;5.82;47.03
39363;BME280;25088;43.238;23.110;2023-04-07T06:05:17;96210.41;;;6.16;46.91
39363;BME280;25088;43.238;23.110;2023-04-07T06:07:42;96215.69;;;6.46;46.29
39363;BME280;25088;43.238;23.110;2023-04-07T06:10:08;96213.06;;;6.74;46.27
39363;BME280;25088;43.238;23.110;2023-04-07T06:12:33;96215.78;;;6.86;45.43
39363;BME280;25088;43.238;23.110;2023-04-07T06:14:59;96207.78;;;7.08;46.84
39363;BME280;25088;43.238;23.110;2023-04-07T06:17:24;96221.25;;;7.03;45.75
39363;BME280;25088;43.238;23.110;2023-04-07T06:19:50;96192.38;;;6.97;44.65
39363;BME280;25088;43.238;23.110;2023-04-07T06:22:15;96216.78;;;7.25;45.37
39363;BME280;25088;43.238;23.110;2023-04-07T06:24:41;96221.75;;;7.29;45.49
39363;BME280;25088;43.238;23.110;2023-04-07T06:27:06;96218.28;;;7.05;46.12
39363;BME280;25088;43.238;23.110;2023-04-07T06:29:33;96219.00;;;7.00;45.88
39363;BME280;25088;43.238;23.110;2023-04-07T06:31:58;96221.25;;;6.63;45.66
39363;BME280;25088;43.238;23.110;2023-04-07T06:34:25;96220.06;;;6.59;46.42
39363;BME280;25088;43.238;23.110;2023-04-07T06:36:50;96215.31;;;6.66;46.97
39363;BME280;25088;43.238;23.110;2023-04-07T06:39:16;96224.28;;;6.78;46.42
39363;BME280;25088;43.238;23.110;2023-04-07T06:41:41;96218.69;;;6.85;45.69
39363;BME280;25088;43.238;23.110;2023-04-07T06:44:09;96210.47;;;6.80;47.09
39363;BME280;25088;43.238;23.110;2023-04-07T06:46:35;96236.97;;;6.89;47.09
39363;BME280;25088;43.238;23.110;2023-04-07T06:49:01;96245.47;;;6.93;46.59
39363;BME280;25088;43.238;23.110;2023-04-07T06:51:28;96235.47;;;6.82;47.24
39363;BME280;25088;43.238;23.110;2023-04-07T06:53:53;96250.34;;;6.79;46.46
39363;BME280;25088;43.238;23.110;2023-04-07T06:56:19;96252.44;;;6.89;46.24
39363;BME280;25088;43.238;23.110;2023-04-07T06:58:45;96266.78;;;7.01;46.59
39363;BME280;25088;43.238;23.110;2023-04-07T07:01:10;96261.25;;;6.96;45.90
39363;BME280;25088;43.238;23.110;2023-04-07T07:03:36;96263.53;;;6.76;46.54
39363;BME280;25088;43.238;23.110;2023-04-07T07:06:01;96278.41;;;6.85;46.74
39363;BME280;25088;43.238;23.110;2023-04-07T07:08:27;96270.47;;;6.95;46.41
39363;BME280;25088;43.238;23.110;2023-04-07T07:10:54;96276.44;;;7.20;46.55
39363;BME280;25088;43.238;23.110;2023-04-07T07:13:21;96271.75;;;7.04;46.66
39363;BME280;25088;43.238;23.110;2023-04-07T07:15:47;96292.28;;;7.12;45.99
39363;BME280;25088;43.238;23.110;2023-04-07T07:18:13;96255.63;;;6.97;46.65
39363;BME280;25088;43.238;23.110;2023-04-07T07:20:39;96268.94;;;6.99;46.08
39363;BME280;25088;43.238;23.110;2023-04-07T07:23:05;96284.66;;;6.97;47.05
39363;BME280;25088;43.238;23.110;2023-04-07T07:25:30;96293.75;;;6.79;47.31
39363;BME280;25088;43.238;23.110;2023-04-07T07:27:55;96301.66;;;6.92;47.75
39363;BME280;25088;43.238;23.110;2023-04-07T07:30:22;96295.03;;;6.88;47.33
39363;BME280;25088;43.238;23.110;2023-04-07T07:32:49;96295.09;;;7.17;46.71
39363;BME280;25088;43.238;23.110;2023-04-07T07:35:15;96299.88;;;7.38;46.57
39363;BME280;25088;43.238;23.110;2023-04-07T07:37:40;96296.44;;;7.43;46.10
39363;BME280;25088;43.238;23.110;2023-04-07T07:40:07;96296.63;;;7.53;46.96
39363;BME280;25088;43.238;23.110;2023-04-07T07:42:32;96294.50;;;7.55;45.99
39363;BME280;25088;43.238;23.110;2023-04-07T07:44:58;96292.69;;;7.61;46.25
39363;BME280;25088;43.238;23.110;2023-04-07T07:47:24;96296.81;;;7.92;45.38
39363;BME280;25088;43.238;23.110;2023-04-07T07:49:49;96298.09;;;8.18;44.59
39363;BME280;25088;43.238;23.110;2023-04-07T07:52:15;96296.28;;;8.07;44.22
39363;BME280;25088;43.238;23.110;2023-04-07T07:54:40;96294.34;;;8.52;43.80
39363;BME280;25088;43.238;23.110;2023-04-07T07:57:06;96294.25;;;9.03;42.29
39363;BME280;25088;43.238;23.110;2023-04-07T07:59:31;96290.00;;;9.12;42.76
39363;BME280;25088;43.238;23.110;2023-04-07T08:01:57;96296.09;;;9.41;41.60
39363;BME280;25088;43.238;23.110;2023-04-07T08:04:23;96300.34;;;9.54;41.52
39363;BME280;25088;43.238;23.110;2023-04-07T08:06:49;96283.06;;;9.21;42.07
39363;BME280;25088;43.238;23.110;2023-04-07T08:09:16;96294.94;;;9.59;41.39
39363;BME280;25088;43.238;23.110;2023-04-07T08:11:42;96295.44;;;10.05;41.29
39363;BME280;25088;43.238;23.110;2023-04-07T08:14:07;96292.75;;;10.37;40.77
39363;BME280;25088;43.238;23.110;2023-04-07T08:16:33;96295.28;;;10.49;39.22
39363;BME280;25088;43.238;23.110;2023-04-07T08:18:58;96304.13;;;10.29;39.28
39363;BME280;25088;43.238;23.110;2023-04-07T08:21:24;96301.50;;;10.39;39.79
39363;BME280;25088;43.238;23.110;2023-04-07T08:23:52;96300.84;;;10.00;40.11
39363;BME280;25088;43.238;23.110;2023-04-07T08:26:18;96310.72;;;9.57;39.95
39363;BME280;25088;43.238;23.110;2023-04-07T08:28:44;96311.50;;;9.30;41.34
39363;BME280;25088;43.238;23.110;2023-04-07T08:31:09;96318.41;;;8.61;42.89
39363;BME280;25088;43.238;23.110;2023-04-07T08:33:35;96314.88;;;8.15;43.31
39363;BME280;25088;43.238;23.110;2023-04-07T08:36:00;96309.16;;;7.83;43.44
39363;BME280;25088;43.238;23.110;2023-04-07T08:38:26;96310.97;;;7.94;44.18
39363;BME280;25088;43.238;23.110;2023-04-07T08:41:17;96308.78;;;8.08;44.52
39363;BME280;25088;43.238;23.110;2023-04-07T08:43:41;96319.31;;;8.04;43.61
39363;BME280;25088;43.238;23.110;2023-04-07T08:46:09;96302.47;;;7.73;44.36
39363;BME280;25088;43.238;23.110;2023-04-07T08:48:36;96321.81;;;7.48;45.71
39363;BME280;25088;43.238;23.110;2023-04-07T08:51:07;96310.78;;;7.55;45.24
39363;BME280;25088;43.238;23.110;2023-04-07T08:53:42;96313.31;;;7.45;46.00
39363;BME280;25088;43.238;23.110;2023-04-07T08:56:11;96321.09;;;7.53;45.63
39363;BME280;25088;43.238;23.110;2023-04-07T08:58:37;96330.22;;;7.47;45.86
39363;BME280;25088;43.238;23.110;2023-04-07T09:01:04;96322.25;;;7.57;46.23
39363;BME280;25088;43.238;23.110;2023-04-07T09:03:32;96316.53;;;7.70;46.14
39363;BME280;25088;43.238;23.110;2023-04-07T09:05:59;96311.72;;;7.89;45.52
39363;BME280;25088;43.238;23.110;2023-04-07T09:08:25;96315.13;;;7.96;45.15
39363;BME280;25088;43.238;23.110;2023-04-07T09:10:51;96331.44;;;8.13;44.47
39363;BME280;25088;43.238;23.110;2023-04-07T09:13:16;96331.66;;;8.40;44.16
39363;BME280;25088;43.238;23.110;2023-04-07T09:15:42;96321.47;;;8.47;43.67
39363;BME280;25088;43.238;23.110;2023-04-07T09:18:07;96325.63;;;8.21;44.16
39363;BME280;25088;43.238;23.110;2023-04-07T09:25:56;96324.06;;;8.25;44.17
39363;BME280;25088;43.238;23.110;2023-04-07T09:28:24;96326.97;;;8.36;44.50
39363;BME280;25088;43.238;23.110;2023-04-07T09:30:54;96323.22;;;8.92;43.56
39363;BME280;25088;43.238;23.110;2023-04-07T09:33:29;96330.84;;;8.90;42.79
39363;BME280;25088;43.238;23.110;2023-04-07T09:35:55;96320.72;;;9.07;43.78
39363;BME280;25088;43.238;23.110;2023-04-07T09:38:21;96327.38;;;9.17;43.38
39363;BME280;25088;43.238;23.110;2023-04-07T09:40:46;96323.38;;;9.02;44.30
39363;BME280;25088;43.238;23.110;2023-04-07T09:43:17;96326.28;;;8.79;43.19
39363;BME280;25088;43.238;23.110;2023-04-07T09:45:43;96343.38;;;8.58;44.36
39363;BME280;25088;43.238;23.110;2023-04-07T09:48:18;96337.50;;;8.32;45.34
39363;BME280;25088;43.238;23.110;2023-04-07T09:50:44;96332.09;;;8.20;45.33
39363;BME280;25088;43.238;23.110;2023-04-07T09:53:14;96341.34;;;8.19;45.67
39363;BME280;25088;43.238;23.110;2023-04-07T09:55:41;96346.59;;;8.09;45.54
39363;BME280;25088;43.238;23.110;2023-04-07T09:58:08;96358.13;;;8.45;44.89
39363;BME280;25088;43.238;23.110;2023-04-07T10:00:37;96358.38;;;8.15;45.89
39363;BME280;25088;43.238;23.110;2023-04-07T10:03:03;96361.06;;;8.26;45.71
39363;BME280;25088;43.238;23.110;2023-04-07T10:05:28;96339.94;;;8.17;44.86
39363;BME280;25088;43.238;23.110;2023-04-07T10:07:54;96349.28;;;8.21;44.98
39363;BME280;25088;43.238;23.110;2023-04-07T10:10:19;96358.03;;;8.40;44.62
39363;BME280;25088;43.238;23.110;2023-04-07T10:12:45;96352.69;;;8.45;44.24
39363;BME280;25088;43.238;23.110;2023-04-07T10:15:12;96354.53;;;8.56;44.75
39363;BME280;25088;43.238;23.110;2023-04-07T10:17:42;96347.84;;;8.47;43.63
39363;BME280;25088;43.238;23.110;2023-04-07T10:20:11;96362.44;;;8.58;44.45
39363;BME280;25088;43.238;23.110;2023-04-07T10:22:37;96354.84;;;8.43;44.51
39363;BME280;25088;43.238;23.110;2023-04-07T10:25:07;96355.53;;;8.21;44.83
39363;BME280;25088;43.238;23.110;2023-04-07T10:27:48;96352.47;;;8.35;45.24
39363;BME280;25088;43.238;23.110;2023-04-07T10:30:27;96364.53;;;8.22;45.18
39363;BME280;25088;43.238;23.110;2023-04-07T10:32:53;96360.06;;;8.33;44.63
39363;BME280;25088;43.238;23.110;2023-04-07T10:35:20;96356.44;;;8.56;45.13
39363;BME280;25088;43.238;23.110;2023-04-07T10:40:38;96367.91;;;8.00;44.39
39363;BME280;25088;43.238;23.110;2023-04-07T10:43:05;96371.84;;;7.93;44.74
39363;BME280;25088;43.238;23.110;2023-04-07T10:48:13;96376.97;;;8.35;44.32
39363;BME280;25088;43.238;23.110;2023-04-07T10:50:39;96368.63;;;8.24;44.56
39363;BME280;25088;43.238;23.110;2023-04-07T10:53:09;96380.75;;;8.34;44.65
39363;BME280;25088;43.238;23.110;2023-04-07T10:55:40;96377.44;;;8.60;45.49
39363;BME280;25088;43.238;23.110;2023-04-07T10:58:26;96374.41;;;8.57;44.05
39363;BME280;25088;43.238;23.110;2023-04-07T11:03:37;96380.22;;;8.48;43.80
39363;BME280;25088;43.238;23.110;2023-04-07T11:06:04;96376.41;;;8.33;44.32
39363;BME280;25088;43.238;23.110;2023-04-07T11:08:40;96381.88;;;8.49;44.88
39363;BME280;25088;43.238;23.110;2023-04-07T11:11:07;96389.94;;;8.44;44.96
39363;BME280;25088;43.238;23.110;2023-04-07T11:13:47;96384.69;;;8.38;44.73
39363;BME280;25088;43.238;23.110;2023-04-07T11:16:14;96381.66;;;8.22;45.57
39363;BME280;25088;43.238;23.110;2023-04-07T11:18:41;96392.94;;;8.43;44.98
39363;BME280;25088;43.238;23.110;2023-04-07T11:21:07;96387.09;;;8.22;44.64
39363;BME280;25088;43.238;23.110;2023-04-07T11:23:41;96374.91;;;8.70;43.73
39363;BME280;25088;43.238;23.110;2023-04-07T11:26:08;96377.78;;;8.47;43.74
39363;BME280;25088;43.238;23.110;2023-04-07T11:28:44;96387.75;;;8.29;44.21
39363;BME280;25088;43.238;23.110;2023-04-07T11:31:10;96386.84;;;8.69;43.22
39363;BME280;25088;43.238;23.110;2023-04-07T11:33:36;96393.28;;;8.97;42.50
39363;BME280;25088;43.238;23.110;2023-04-07T11:36:05;96390.38;;;9.20;43.56
39363;BME280;25088;43.238;23.110;2023-04-07T11:38:35;96385.50;;;9.44;42.58
39363;BME280;25088;43.238;23.110;2023-04-07T11:41:13;96391.56;;;10.17;41.70
39363;BME280;25088;43.238;23.110;2023-04-07T11:43:39;96386.88;;;10.13;40.84
39363;BME280;25088;43.238;23.110;2023-04-07T11:46:24;96388.38;;;9.76;41.03
39363;BME280;25088;43.238;23.110;2023-04-07T11:48:49;96395.41;;;8.95;43.34
39363;BME280;25088;43.238;23.110;2023-04-07T11:51:21;96396.69;;;8.70;43.67
39363;BME280;25088;43.238;23.110;2023-04-07T11:53:57;96398.31;;;8.71;43.60
39363;BME280;25088;43.238;23.110;2023-04-07T11:56:22;96398.38;;;8.93;44.02
39363;BME280;25088;43.238;23.110;2023-04-07T11:58:53;96400.84;;;8.95;43.84
39363;BME280;25088;43.238;23.110;2023-04-07T12:01:19;96398.31;;;8.88;44.76
39363;BME280;25088;43.238;23.110;2023-04-07T12:04:00;96392.13;;;8.93;44.62
39363;BME280;25088;43.238;23.110;2023-04-07T12:06:34;96394.34;;;8.96;45.44
39363;BME280;25088;43.238;23.110;2023-04-07T12:09:05;96384.84;;;8.98;44.63
39363;BME280;25088;43.238;23.110;2023-04-07T12:11:31;96398.97;;;8.95;44.27
39363;BME280;25088;43.238;23.110;2023-04-07T12:13:57;96398.19;;;9.00;42.78
39363;BME280;25088;43.238;23.110;2023-04-07T12:16:23;96392.59;;;9.06;44.08
39363;BME280;25088;43.238;23.110;2023-04-07T12:18:49;96390.97;;;9.05;43.44
39363;BME280;25088;43.238;23.110;2023-04-07T12:21:19;96394.88;;;9.15;42.97
39363;BME280;25088;43.238;23.110;2023-04-07T12:23:45;96399.53;;;8.97;43.45
39363;BME280;25088;43.238;23.110;2023-04-07T12:26:11;96398.56;;;8.87;42.88
39363;BME280;25088;43.238;23.110;2023-04-07T12:28:37;96404.09;;;8.92;44.37
39363;BME280;25088;43.238;23.110;2023-04-07T12:31:03;96383.63;;;8.89;44.79
39363;BME280;25088;43.238;23.110;2023-04-07T12:33:29;96386.72;;;9.15;44.80
39363;BME280;25088;43.238;23.110;2023-04-07T12:35:56;96392.66;;;9.28;44.34
39363;BME280;25088;43.238;23.110;2023-04-07T12:38:22;96388.28;;;9.27;43.56
39363;BME280;25088;43.238;23.110;2023-04-07T12:40:47;96387.16;;;9.06;43.28
39363;BME280;25088;43.238;23.110;2023-04-07T12:43:13;96401.75;;;9.17;42.86
39363;BME280;25088;43.238;23.110;2023-04-07T12:45:38;96386.38;;;9.28;43.40
39363;BME280;25088;43.238;23.110;2023-04-07T12:48:04;96389.91;;;9.45;42.51
39363;BME280;25088;43.238;23.110;2023-04-07T12:50:30;96389.56;;;9.42;42.64
39363;BME280;25088;43.238;23.110;2023-04-07T12:52:56;96386.97;;;9.30;43.25
39363;BME280;25088;43.238;23.110;2023-04-07T12:55:23;96381.81;;;9.33;43.11
39363;BME280;25088;43.238;23.110;2023-04-07T12:57:48;96386.56;;;9.21;43.30
39363;BME280;25088;43.238;23.110;2023-04-07T13:00:14;96384.41;;;9.23;43.19
39363;BME280;25088;43.238;23.110;2023-04-07T13:02:41;96391.25;;;9.26;42.75
39363;BME280;25088;43.238;23.110;2023-04-07T13:05:07;96396.78;;;9.53;42.59
39363;BME280;25088;43.238;23.110;2023-04-07T13:07:33;96392.69;;;9.50;42.41
39363;BME280;25088;43.238;23.110;2023-04-07T13:10:02;96395.34;;;9.67;42.74
39363;BME280;25088;43.238;23.110;2023-04-07T13:12:28;96389.16;;;9.50;43.05
39363;BME280;25088;43.238;23.110;2023-04-07T13:14:53;96393.09;;;9.20;43.51
39363;BME280;25088;43.238;23.110;2023-04-07T13:17:19;96392.09;;;9.26;43.17
39363;BME280;25088;43.238;23.110;2023-04-07T13:19:44;96398.13;;;9.12;43.57